KMOB/MOB METAR and TAF weather

Enter ICAO airport designator
Station Type Date Time Source
KMOB METAR 2022/06/29 00:56 UTC NOAA

KMOB 290056Z 11010KT 10SM SCT040 SCT100 BKN200 28/21 A3004 RMK AO2 LTG DSNT W-N SLP169 CB DSNT ALQDS T02780206


Station Type Date Time Source
KMOB Decoded METAR 2022/06/29 00:56 UTC NOAA

MOBILE REGIONAL AIRPORT, AL, United States (KMOB) 30-41N 88-14W 67M
Jun 28, 2022 - 08:56 PM EDT / 2022.06.29 0056 UTC
Wind: from the ESE (110 degrees) at 12 MPH (10 KT):0
Visibility: 10 mile(s):0
Sky conditions: mostly cloudy
Weather: Cumulonimbus clouds, lightning observed
Temperature: 82.0 F (27.8 C)
Dew Point: 69.1 F (20.6 C)
Relative Humidity: 64%
Pressure (altimeter): 30.04 in. Hg (1017 hPa)
ob: KMOB 290056Z 11010KT 10SM SCT040 SCT100 BKN200 28/21 A3004 RMK AO2 LTG DSNT W-N SLP169 CB DSNT ALQDS T02780206
cycle: 1

Station Type Date Time Source
KMOB TAF 2022/06/28 18:24 UTC NOAA

TAF KMOB 281721Z 2818/2918 14010KT P6SM FEW030 FEW100 SCT250
FM282100 14007KT P6SM VCTS SCT060CB BKN090
FM290300 00000KT P6SM BKN100

Example: see airport list